Time;durP1;ratioP1;P1;durP2;ratioP2;P2;SDS_P1;SDS_P2;PMS_P1;PMS_P2;Temp;Humidity;BMP_temperature;BMP_pressure;BME280_temperature;BME280_humidity;BME280_pressure;Samples;Min_cycle;Max_cycle;Signal;HPM_P1;HPM_P2
2023/10/16 00:01:10;;;;;;;3.83;1.75;;;;;;;0.73;100.00;97914.38;5060597;28;20503;-60
2023/10/16 00:03:38;;;;;;;3.97;1.70;;;;;;;0.77;100.00;97921.03;5058962;28;20055;-61
2023/10/16 00:06:05;;;;;;;4.25;1.38;;;;;;;0.78;100.00;97920.03;5060129;28;20048;-60
2023/10/16 00:08:35;;;;;;;2.95;1.58;;;;;;;0.84;100.00;97927.31;5058884;28;20110;-60
2023/10/16 00:11:07;;;;;;;2.75;1.60;;;;;;;0.83;100.00;97923.00;5061703;28;20459;-61
2023/10/16 00:13:38;;;;;;;2.53;1.42;;;;;;;0.78;100.00;97912.06;5057772;28;20504;-61
2023/10/16 00:16:05;;;;;;;7.25;1.83;;;;;;;0.89;100.00;97908.16;5065286;28;20120;-60
2023/10/16 00:18:34;;;;;;;3.50;1.50;;;;;;;0.90;100.00;97907.97;5058194;28;20048;-61
2023/10/16 00:21:05;;;;;;;4.70;1.70;;;;;;;0.93;100.00;97914.78;5063907;28;20043;-60
2023/10/16 00:23:42;;;;;;;6.82;1.60;;;;;;;0.87;100.00;97919.00;5062026;28;20072;-60
2023/10/16 00:26:12;;;;;;;3.85;1.42;;;;;;;0.94;100.00;97918.28;5062992;28;20040;-63
2023/10/16 00:28:45;;;;;;;2.88;1.30;;;;;;;0.95;100.00;97915.44;5060476;28;20049;-61
2023/10/16 00:31:20;;;;;;;2.58;1.30;;;;;;;0.87;100.00;97908.31;5061221;28;20048;-61
2023/10/16 00:33:49;;;;;;;6.72;1.85;;;;;;;0.97;100.00;97908.09;5058646;28;20123;-61
2023/10/16 00:36:15;;;;;;;3.13;1.45;;;;;;;0.96;100.00;97906.41;5059429;28;20543;-61
2023/10/16 00:38:47;;;;;;;3.92;1.38;;;;;;;1.11;100.00;97906.47;5068998;28;20051;-61
2023/10/16 00:43:43;;;;;;;2.42;1.38;;;;;;;0.94;100.00;97907.59;5065361;28;20471;-63
2023/10/16 00:46:18;;;;;;;2.50;1.20;;;;;;;0.96;100.00;97900.28;5044249;28;20123;-62
2023/10/16 00:48:46;;;;;;;2.60;1.35;;;;;;;0.94;100.00;97900.44;5045922;28;20453;-63
2023/10/16 00:51:13;;;;;;;2.70;1.08;;;;;;;0.89;100.00;97894.81;5048030;28;20106;-62
2023/10/16 00:53:46;;;;;;;4.15;1.50;;;;;;;1.03;100.00;97894.03;5060329;28;20047;-62
2023/10/16 00:56:13;;;;;;;2.58;1.38;;;;;;;0.94;100.00;97888.94;5054356;28;20050;-62
2023/10/16 00:58:50;;;;;;;6.13;1.67;;;;;;;0.85;100.00;97889.00;5053489;28;20048;-63
2023/10/16 01:01:18;;;;;;;4.82;1.80;;;;;;;0.84;100.00;97884.66;5045782;28;20037;-62
2023/10/16 01:03:48;;;;;;;4.10;1.60;;;;;;;0.84;100.00;97878.50;5054376;28;20041;-62
2023/10/16 01:06:16;;;;;;;2.25;1.30;;;;;;;0.71;100.00;97874.59;5060833;28;20071;-63
2023/10/16 01:08:49;;;;;;;2.15;1.30;;;;;;;0.64;100.00;97878.97;5046047;28;20517;-62
2023/10/16 01:11:19;;;;;;;4.85;1.45;;;;;;;0.64;100.00;97869.16;5060298;28;20044;-62
2023/10/16 01:13:50;;;;;;;3.55;1.63;;;;;;;0.69;100.00;97870.44;5062378;28;20321;-62
2023/10/16 01:16:18;;;;;;;3.78;1.40;;;;;;;0.72;100.00;97864.75;5052398;28;20128;-62
2023/10/16 01:18:45;;;;;;;3.33;1.40;;;;;;;0.72;100.00;97864.75;5055348;28;20056;-62
2023/10/16 01:21:17;;;;;;;5.13;1.38;;;;;;;0.73;100.00;97855.75;5057337;28;20051;-62
2023/10/16 01:23:44;;;;;;;2.25;1.27;;;;;;;0.70;100.00;97864.94;5062096;28;20033;-62
2023/10/16 01:26:13;;;;;;;3.53;1.40;;;;;;;0.85;100.00;97862.31;5047336;28;20630;-62
2023/10/16 01:28:41;;;;;;;2.42;1.45;;;;;;;0.55;100.00;97854.19;5045184;28;20115;-62
2023/10/16 01:31:08;;;;;;;3.20;1.48;;;;;;;0.37;100.00;97859.81;5054170;28;20032;-62
2023/10/16 01:33:35;;;;;;;2.35;1.30;;;;;;;0.03;100.00;97855.63;5059934;28;20049;-62
2023/10/16 01:36:07;;;;;;;3.28;1.50;;;;;;;0.00;100.00;97859.47;5054899;28;20037;-62
2023/10/16 01:38:34;;;;;;;2.28;1.40;;;;;;;-0.01;100.00;97858.63;5046073;28;20053;-62
2023/10/16 01:41:04;;;;;;;3.00;1.40;;;;;;;-0.02;100.00;97853.47;5048192;28;20033;-62
2023/10/16 01:43:33;;;;;;;2.83;1.48;;;;;;;-0.06;100.00;97862.78;5011559;28;20537;-63
2023/10/16 01:46:08;;;;;;;5.60;1.50;;;;;;;-0.12;100.00;97861.63;5013835;28;20514;-62
2023/10/16 01:48:40;;;;;;;3.67;1.52;;;;;;;-0.04;100.00;97861.63;5012130;28;20056;-62
2023/10/16 01:51:20;;;;;;;3.03;1.45;;;;;;;-0.04;100.00;97858.13;5055692;28;20136;-63
2023/10/16 01:53:47;;;;;;;2.92;1.50;;;;;;;0.08;100.00;97855.94;5044548;28;20047;-62
2023/10/16 01:56:14;;;;;;;5.07;1.70;;;;;;;0.00;100.00;97856.81;5060412;28;20131;-62
2023/10/16 01:58:42;;;;;;;3.53;1.70;;;;;;;-0.09;100.00;97849.81;5054418;28;20045;-62
2023/10/16 02:01:10;;;;;;;3.25;1.30;;;;;;;-0.07;100.00;97845.97;5058303;28;20075;-62
2023/10/16 02:03:38;;;;;;;3.97;1.70;;;;;;;-0.06;100.00;97842.34;5060787;28;20059;-62
2023/10/16 02:06:05;;;;;;;4.60;2.00;;;;;;;-0.13;100.00;97841.34;5051341;28;20060;-61
2023/10/16 02:08:31;;;;;;;4.50;1.95;;;;;;;-0.14;100.00;97850.34;5050897;28;20458;-62
2023/10/16 02:10:58;;;;;;;2.97;1.60;;;;;;;-0.25;100.00;97848.03;5043272;28;20037;-62
2023/10/16 02:13:24;;;;;;;4.15;1.83;;;;;;;-0.14;100.00;97848.50;5050188;28;20082;-62
2023/10/16 02:15:51;;;;;;;3.20;1.60;;;;;;;-0.07;100.00;97835.31;5059903;28;20044;-62
2023/10/16 02:18:23;;;;;;;4.07;1.70;;;;;;;-0.16;100.00;97831.03;5056070;28;20056;-62
2023/10/16 02:20:51;;;;;;;2.22;1.35;;;;;;;-0.32;100.00;97837.25;5051871;28;20102;-62
2023/10/16 02:23:19;;;;;;;3.45;1.70;;;;;;;-0.27;100.00;97832.25;5057747;28;20044;-62
2023/10/16 02:25:45;;;;;;;3.58;1.33;;;;;;;-0.23;100.00;97827.44;5061080;28;20048;-62
2023/10/16 02:28:13;;;;;;;3.92;1.65;;;;;;;-0.24;100.00;97823.06;5053198;28;20599;-62
2023/10/16 02:30:41;;;;;;;4.13;1.73;;;;;;;-0.23;100.00;97830.09;5052882;28;20092;-62
2023/10/16 02:33:14;;;;;;;1.50;1.15;;;;;;;-0.12;100.00;97828.88;5050142;28;20033;-62
2023/10/16 02:35:47;;;;;;;2.13;1.45;;;;;;;0.00;100.00;97824.84;5041610;28;20041;-62
2023/10/16 02:38:23;;;;;;;3.30;1.53;;;;;;;-0.03;100.00;97815.34;5051114;28;20212;-62
2023/10/16 02:40:53;;;;;;;3.95;1.40;;;;;;;0.09;100.00;97817.63;5054116;28;20851;-62
2023/10/16 02:43:20;;;;;;;3.35;1.50;;;;;;;-0.05;100.00;97819.19;5061495;28;20051;-62
2023/10/16 02:45:52;;;;;;;1.98;1.20;;;;;;;-0.20;100.00;97816.41;5050508;28;20069;-62
2023/10/16 02:48:19;;;;;;;;;;;;;;;-0.30;100.00;97816.59;5050029;28;20060;-62
2023/10/16 02:50:50;;;;;;;2.10;1.30;;;;;;;-0.30;100.00;97819.25;5048407;28;19932;-62
2023/10/16 02:53:25;;;;;;;2.80;1.35;;;;;;;-0.34;100.00;97821.44;5043096;28;20049;-62
2023/10/16 02:55:57;;;;;;;3.42;1.40;;;;;;;-0.21;100.00;97823.59;5052474;28;21352;-62
2023/10/16 02:58:26;;;;;;;2.20;1.33;;;;;;;-0.03;100.00;97819.88;5041640;28;20044;-62
2023/10/16 03:00:55;;;;;;;3.90;1.50;;;;;;;0.04;100.00;97820.00;5050250;28;20037;-62
2023/10/16 03:03:26;;;;;;;2.65;1.25;;;;;;;0.06;100.00;97816.16;5042821;28;20130;-62
2023/10/16 03:05:55;;;;;;;2.25;1.15;;;;;;;0.03;100.00;97824.47;5037729;28;20048;-62
2023/10/16 03:08:29;;;;;;;4.97;1.33;;;;;;;-0.22;100.00;97824.56;5046785;28;20084;-62
2023/10/16 03:11:04;;;;;;;2.97;1.45;;;;;;;-0.22;100.00;97821.09;5054205;28;20047;-62
2023/10/16 03:13:37;;;;;;;2.78;1.20;;;;;;;-0.19;100.00;97818.09;5062650;28;20045;-62
2023/10/16 03:16:18;;;;;;;3.88;1.40;;;;;;;-0.31;100.00;97817.63;5037003;28;20048;-62
2023/10/16 03:18:47;;;;;;;2.60;1.30;;;;;;;-0.34;100.00;97810.81;5046940;28;20044;-62
2023/10/16 03:23:47;;;;;;;3.50;1.40;;;;;;;-0.50;100.00;97819.66;5051747;28;20090;-61
2023/10/16 03:28:47;;;;;;;4.43;1.63;;;;;;;-0.55;100.00;97811.38;5055210;28;20055;-62
2023/10/16 03:31:14;;;;;;;4.55;1.70;;;;;;;-0.64;100.00;97807.03;5048954;28;20060;-62
2023/10/16 03:33:41;;;;;;;3.78;1.73;;;;;;;-0.57;100.00;97805.38;5042635;28;20068;-62
2023/10/16 03:36:09;;;;;;;3.30;1.58;;;;;;;-0.69;100.00;97811.06;5053306;28;20059;-62
2023/10/16 03:38:37;;;;;;;3.75;1.80;;;;;;;-0.75;100.00;97814.38;5054135;28;20471;-62
2023/10/16 03:41:11;;;;;;;4.85;1.70;;;;;;;-0.69;100.00;97808.41;5057705;28;20500;-62
2023/10/16 03:43:42;;;;;;;3.92;1.73;;;;;;;-0.58;100.00;97809.03;5053841;28;20062;-62
2023/10/16 03:46:10;;;;;;;4.43;2.38;;;;;;;-0.61;100.00;97806.72;5046418;28;20037;-62
2023/10/16 03:48:38;;;;;;;4.05;1.75;;;;;;;-0.68;100.00;97807.41;5046156;28;20282;-62
2023/10/16 03:51:06;;;;;;;2.85;1.50;;;;;;;-0.58;100.00;97809.03;5049819;28;20064;-62
2023/10/16 03:53:35;;;;;;;3.25;1.80;;;;;;;-0.53;100.00;97804.03;5055670;28;20109;-62
2023/10/16 03:56:03;;;;;;;3.83;1.90;;;;;;;-0.44;100.00;97804.84;5038840;28;20112;-62
2023/10/16 03:58:34;;;;;;;3.33;1.77;;;;;;;-0.46;100.00;97802.38;5054933;28;20102;-62
2023/10/16 04:01:10;;;;;;;;;;;;;;;-0.40;100.00;97807.00;5035831;28;20116;-62
2023/10/16 04:03:46;;;;;;;3.97;1.70;;;;;;;-0.52;100.00;97797.72;5049663;28;19927;-62
2023/10/16 04:06:18;;;;;;;4.43;2.15;;;;;;;-0.56;100.00;97809.69;5048375;28;20419;-63
2023/10/16 04:08:49;;;;;;;4.18;2.13;;;;;;;-0.53;100.00;97802.22;5042256;28;20393;-62
2023/10/16 04:11:17;;;;;;;6.50;2.30;;;;;;;-0.61;100.00;97802.22;5054476;28;20049;-63
2023/10/16 04:13:49;;;;;;;5.22;1.92;;;;;;;-0.48;100.00;97801.69;5050158;28;20107;-62
2023/10/16 04:21:51;;;;;;;5.60;3.15;;;;;;;-0.67;100.00;97798.41;5059309;28;20063;-62
2023/10/16 04:25:17;;;;;;;5.15;2.90;;;;;;;-0.72;100.00;97792.78;5054940;28;20041;-62
2023/10/16 04:37:55;;;;;;;3.40;1.80;;;;;;;-0.63;100.00;97780.28;5045386;28;20043;-62
2023/10/16 04:43:13;;;;;;;4.38;2.20;;;;;;;-1.03;100.00;97766.91;5045163;28;20672;-62
2023/10/16 04:45:39;;;;;;;5.15;2.05;;;;;;;-1.05;100.00;97764.41;5056898;28;20055;-62
2023/10/16 04:53:22;;;;;;;3.90;2.13;;;;;;;-0.88;100.00;97766.22;5050835;28;20575;-62
2023/10/16 05:09:44;;;;;;;6.55;2.97;;;;;;;-0.93;100.00;97751.59;5040167;28;20045;-63
2023/10/16 05:14:28;;;;;;;5.53;2.92;;;;;;;-0.87;100.00;97752.75;5044345;28;20033;-64
2023/10/16 05:17:21;;;;;;;6.55;3.15;;;;;;;-0.74;100.00;97754.88;5040626;28;20068;-63
2023/10/16 05:20:13;;;;;;;4.65;2.45;;;;;;;-0.67;100.00;97739.91;5044137;28;20136;-62
2023/10/16 06:14:57;;;;;;;8.10;4.32;;;;;;;-0.82;100.00;97752.22;5059492;28;20045;-62
2023/10/16 06:17:24;;;;;;;6.05;3.35;;;;;;;-0.73;100.00;97759.22;5047407;28;20049;-62
2023/10/16 06:19:51;;;;;;;7.93;3.92;;;;;;;-0.71;100.00;97762.53;5049521;28;20634;-62
2023/10/16 06:22:17;;;;;;;6.25;3.85;;;;;;;-0.69;100.00;97765.84;5049003;28;20049;-62
2023/10/16 06:24:44;;;;;;;7.53;4.28;;;;;;;-0.66;100.00;97762.84;5053312;28;20036;-63
2023/10/16 06:27:12;;;;;;;6.57;4.15;;;;;;;-0.70;100.00;97766.84;5054951;28;20049;-62
2023/10/16 06:29:52;;;;;;;5.32;3.33;;;;;;;-0.63;100.00;97768.84;5051551;28;20791;-62
2023/10/16 06:32:21;;;;;;;7.63;3.42;;;;;;;-0.55;100.00;97774.94;5050926;28;20231;-63
2023/10/16 06:34:50;;;;;;;6.28;3.95;;;;;;;-0.57;100.00;97768.13;5046218;28;20120;-62
2023/10/16 06:37:17;;;;;;;6.93;4.20;;;;;;;-0.58;100.00;97771.81;5049309;28;20048;-62
2023/10/16 06:40:25;;;;;;;7.85;4.07;;;;;;;-0.62;100.00;97779.31;5052604;28;20037;-63
2023/10/16 06:42:46;;;;;;;8.27;4.70;;;;;;;-0.44;100.00;97776.41;5042919;28;20052;-63
2023/10/16 06:45:19;;;;;;;6.95;4.40;;;;;;;-0.38;100.00;97776.75;5059447;28;20044;-63
2023/10/16 06:47:49;;;;;;;8.15;4.60;;;;;;;-0.34;100.00;97770.88;5049714;28;20191;-62
2023/10/16 06:52:53;;;;;;;6.75;4.03;;;;;;;-0.31;100.00;97775.88;5047469;28;20049;-63
2023/10/16 06:55:23;;;;;;;12.23;4.45;;;;;;;-0.19;100.00;97776.31;5056139;28;20049;-63
2023/10/16 06:57:50;;;;;;;8.43;4.68;;;;;;;-0.07;100.00;97776.75;5047736;28;20048;-63
2023/10/16 07:00:27;;;;;;;6.60;4.10;;;;;;;-0.04;100.00;97776.41;5052938;28;20049;-63
2023/10/16 07:02:55;;;;;;;9.27;4.80;;;;;;;0.02;100.00;97769.56;5042889;28;20502;-64
2023/10/16 07:05:42;;;;;;;10.05;5.28;;;;;;;0.09;100.00;97775.88;5042243;28;20049;-64
2023/10/16 07:08:18;;;;;;;8.38;5.07;;;;;;;0.28;100.00;97773.75;5043903;28;20045;-63
2023/10/16 07:10:50;;;;;;;10.50;5.18;;;;;;;0.38;100.00;97770.88;5051636;28;20068;-63
2023/10/16 07:13:27;;;;;;;10.02;4.75;;;;;;;0.52;100.00;97769.28;5049519;28;20698;-63
2023/10/16 07:15:59;;;;;;;6.95;4.90;;;;;;;0.68;100.00;97762.16;5063132;28;20499;-63
2023/10/16 07:18:28;;;;;;;9.10;5.28;;;;;;;0.93;100.00;97773.47;5046715;28;20045;-63
2023/10/16 07:23:34;;;;;;;7.40;4.20;;;;;;;1.09;100.00;97760.97;5051668;28;20048;-63
2023/10/16 07:26:16;;;;;;;7.03;4.30;;;;;;;1.02;100.00;97769.72;5043775;28;20593;-63
2023/10/16 07:28:48;;;;;;;9.32;3.88;;;;;;;1.17;100.00;97774.25;5047809;28;20071;-63
2023/10/16 07:31:16;;;;;;;10.60;4.78;;;;;;;1.33;100.00;97778.59;5042676;28;20055;-64
2023/10/16 07:33:45;;;;;;;9.85;5.35;;;;;;;1.49;100.00;97776.75;5039134;28;20175;-64
2023/10/16 07:36:12;;;;;;;8.85;5.07;;;;;;;1.58;100.00;97772.19;5045450;28;20458;-64
2023/10/16 07:38:39;;;;;;;9.05;5.05;;;;;;;1.77;100.00;97770.78;5042418;28;20048;-64
2023/10/16 07:41:09;;;;;;;8.18;4.85;;;;;;;1.99;100.00;97776.19;5041248;28;20090;-63
2023/10/16 07:43:36;;;;;;;10.13;5.38;;;;;;;2.19;100.00;97769.25;5044100;28;20037;-63
2023/10/16 07:46:17;;;;;;;11.13;4.82;;;;;;;2.40;100.00;97767.59;5040795;28;20477;-63
2023/10/16 07:48:49;;;;;;;6.97;4.22;;;;;;;2.62;100.00;97767.63;5041925;28;20095;-63
2023/10/16 07:51:20;;;;;;;9.52;5.18;;;;;;;2.84;100.00;97759.59;5041907;28;20048;-64
2023/10/16 07:53:50;;;;;;;9.25;5.65;;;;;;;3.06;100.00;97763.06;5038646;28;20047;-64
2023/10/16 07:58:54;;;;;;;8.82;4.65;;;;;;;3.48;100.00;97765.84;5042386;28;20052;-64
2023/10/16 08:06:53;;;;;;;5.77;3.90;;;;;;;3.96;100.00;97756.19;5036991;28;20065;-63
2023/10/16 08:12:12;;;;;;;7.47;3.67;;;;;;;4.17;100.00;97762.47;5051016;28;20663;-64
2023/10/16 08:14:42;;;;;;;7.22;4.18;;;;;;;4.31;100.00;97754.47;5044269;28;20041;-64
2023/10/16 08:17:14;;;;;;;7.22;3.80;;;;;;;4.45;100.00;97764.19;5050976;28;20045;-63
2023/10/16 08:19:49;;;;;;;6.15;3.65;;;;;;;4.61;100.00;97757.59;5038239;28;20052;-63
2023/10/16 08:22:16;;;;;;;13.65;4.03;;;;;;;4.72;100.00;97758.06;5035512;28;20496;-63
2023/10/16 08:25:04;;;;;;;6.50;4.35;;;;;;;4.77;100.00;97760.94;5043809;28;20052;-63
2023/10/16 08:27:50;;;;;;;9.57;4.75;;;;;;;4.95;100.00;97763.84;5041558;28;20043;-63
2023/10/16 08:30:49;;;;;;;8.38;3.75;;;;;;;5.08;100.00;97767.56;5040833;28;20083;-63
2023/10/16 08:33:16;;;;;;;10.43;4.40;;;;;;;5.02;100.00;97758.47;5051831;28;20052;-63
2023/10/16 08:35:45;;;;;;;9.52;4.22;;;;;;;5.11;100.00;97774.38;5043589;28;20992;-63
2023/10/16 08:38:20;;;;;;;13.50;5.20;;;;;;;5.17;100.00;97766.31;5045454;28;20110;-63
2023/10/16 08:41:06;;;;;;;8.30;4.10;;;;;;;5.28;100.00;97770.25;5031643;28;20572;-62
2023/10/16 08:43:53;;;;;;;10.77;4.15;;;;;;;5.39;100.00;97774.16;5045462;28;20106;-63
2023/10/16 08:49:09;;;;;;;9.73;4.50;;;;;;;5.37;100.00;97770.00;5020933;28;20084;-62
2023/10/16 08:51:36;;;;;;;6.60;3.88;;;;;;;5.48;100.00;97764.00;5044841;28;20045;-63
2023/10/16 08:54:05;;;;;;;9.48;4.85;;;;;;;5.60;100.00;97769.56;5034610;28;20052;-63
2023/10/16 08:56:32;;;;;;;10.55;4.28;;;;;;;5.60;100.00;97770.41;5050789;28;20049;-63
2023/10/16 08:59:01;;;;;;;7.47;3.53;;;;;;;5.65;100.00;97771.63;5041271;28;20055;-64
2023/10/16 09:01:30;;;;;;;8.40;3.50;;;;;;;5.70;100.00;97772.66;5032473;28;20084;-63
2023/10/16 09:04:05;;;;;;;9.85;4.25;;;;;;;5.83;100.00;97763.72;5044924;28;20102;-63
2023/10/16 09:06:39;;;;;;;9.30;3.63;;;;;;;5.81;100.00;97759.59;5048188;28;20044;-63
2023/10/16 09:09:13;;;;;;;8.13;3.55;;;;;;;5.94;100.00;97764.91;5044364;28;20745;-63
2023/10/16 09:11:44;;;;;;;5.72;3.28;;;;;;;6.01;100.00;97766.78;5041224;28;20686;-63
2023/10/16 09:14:13;;;;;;;10.50;4.00;;;;;;;5.92;100.00;97766.19;5041697;28;20064;-63
2023/10/16 09:16:44;;;;;;;7.25;3.53;;;;;;;6.00;100.00;97768.63;5042891;28;20052;-63
2023/10/16 09:19:14;;;;;;;6.13;3.33;;;;;;;5.99;98.69;97764.28;5048376;28;20037;-63
2023/10/16 09:21:45;;;;;;;8.15;3.58;;;;;;;6.10;98.20;97770.91;5043683;28;20044;-63
2023/10/16 09:24:13;;;;;;;7.00;3.42;;;;;;;6.13;98.83;97756.22;5046404;28;20045;-62
2023/10/16 09:26:45;;;;;;;7.45;3.28;;;;;;;6.19;98.97;97758.88;5045218;28;20045;-63
2023/10/16 09:29:14;;;;;;;6.20;3.88;;;;;;;6.20;98.17;97757.81;5049422;28;20056;-63
2023/10/16 09:31:45;;;;;;;8.20;3.50;;;;;;;6.25;98.36;97757.19;5036481;28;20512;-63
2023/10/16 09:34:18;;;;;;;7.63;4.03;;;;;;;6.22;97.90;97749.53;5039518;28;20053;-63
2023/10/16 09:37:14;;;;;;;5.93;3.55;;;;;;;6.37;97.03;97749.25;5033355;28;20534;-63
2023/10/16 09:39:49;;;;;;;7.50;3.55;;;;;;;6.47;96.06;97740.72;5046364;28;20049;-62
2023/10/16 09:42:24;;;;;;;6.45;3.40;;;;;;;6.57;95.21;97743.78;5042313;28;20053;-62
2023/10/16 09:44:59;;;;;;;6.18;3.50;;;;;;;6.70;94.43;97742.03;5042992;28;20037;-63
2023/10/16 09:47:27;;;;;;;9.93;4.15;;;;;;;6.74;95.41;97737.84;5042865;28;20686;-62
2023/10/16 09:49:57;;;;;;;6.55;4.10;;;;;;;6.67;94.93;97734.41;5043429;28;20484;-63
2023/10/16 09:52:25;;;;;;;9.90;4.10;;;;;;;6.78;95.27;97732.88;5042893;28;20073;-63
2023/10/16 09:54:52;;;;;;;7.30;4.03;;;;;;;6.74;93.32;97735.16;5045429;28;20454;-63
2023/10/16 09:57:27;;;;;;;11.23;4.22;;;;;;;6.84;93.95;97740.06;5033979;28;20527;-63
2023/10/16 09:59:54;;;;;;;8.65;4.22;;;;;;;6.99;92.85;97737.03;5039681;28;20543;-63
2023/10/16 10:02:35;;;;;;;5.57;3.40;;;;;;;7.05;91.16;97738.88;5038373;28;20056;-63
2023/10/16 10:05:09;;;;;;;6.35;3.00;;;;;;;7.09;88.09;97734.69;5037491;28;20710;-62
2023/10/16 10:07:47;;;;;;;5.25;2.90;;;;;;;7.18;88.69;97735.22;5040022;28;21217;-62
2023/10/16 10:13:09;;;;;;;5.57;2.67;;;;;;;7.26;86.64;97740.34;5042118;28;20066;-63
2023/10/16 10:15:39;;;;;;;7.97;3.25;;;;;;;7.23;87.81;97738.06;5039539;28;20045;-64
2023/10/16 10:20:59;;;;;;;7.10;2.85;;;;;;;7.52;86.41;97729.53;5033663;28;20056;-64
2023/10/16 10:23:26;;;;;;;5.70;3.20;;;;;;;7.56;86.33;97730.75;5042352;28;20539;-63
2023/10/16 10:25:53;;;;;;;5.60;3.05;;;;;;;7.51;86.60;97734.09;5043519;28;20044;-63
2023/10/16 10:28:28;;;;;;;8.77;3.47;;;;;;;7.49;85.72;97722.69;5045166;28;20147;-63
2023/10/16 10:31:02;;;;;;;6.65;3.10;;;;;;;7.54;85.71;97717.50;5030198;28;20041;-63
2023/10/16 10:33:51;;;;;;;5.72;3.15;;;;;;;7.74;85.14;97727.22;5040755;28;20676;-63
2023/10/16 10:36:36;;;;;;;4.47;2.58;;;;;;;7.82;82.46;97720.72;5037165;28;20445;-62
2023/10/16 10:41:56;;;;;;;5.55;2.33;;;;;;;7.97;80.67;97727.59;5033629;28;20123;-63
2023/10/16 10:44:52;;;;;;;7.90;2.90;;;;;;;7.98;80.77;97726.53;5045326;28;20056;-63
2023/10/16 10:47:23;;;;;;;5.82;2.67;;;;;;;7.96;80.31;97724.06;5042332;28;20923;-63
2023/10/16 10:49:51;;;;;;;5.97;2.65;;;;;;;7.97;79.79;97716.78;5043384;28;20040;-63
2023/10/16 10:52:22;;;;;;;4.13;2.25;;;;;;;8.06;77.80;97712.72;5042478;28;20122;-63
2023/10/16 10:54:58;;;;;;;5.00;2.30;;;;;;;8.14;78.29;97709.72;5042981;28;20045;-63
2023/10/16 10:57:25;;;;;;;5.43;2.25;;;;;;;8.19;76.39;97696.38;5037863;28;20044;-64
2023/10/16 10:59:56;;;;;;;5.95;2.38;;;;;;;8.26;74.83;97700.88;5048087;28;20056;-64
2023/10/16 11:04:58;;;;;;;4.40;2.25;;;;;;;8.23;76.73;97690.53;5049516;28;20049;-64
2023/10/16 11:07:39;;;;;;;3.88;2.30;;;;;;;8.20;76.14;97683.72;5039291;28;20048;-64
2023/10/16 11:10:07;;;;;;;4.03;1.90;;;;;;;8.36;76.58;97679.53;5047853;28;20137;-64
2023/10/16 11:12:34;;;;;;;4.57;2.40;;;;;;;8.38;75.29;97671.22;5043857;28;20289;-63
2023/10/16 11:15:05;;;;;;;6.38;2.88;;;;;;;8.47;76.20;97664.44;5039949;28;20494;-64
2023/10/16 11:17:37;;;;;;;;;;;;;;;8.64;73.62;97666.50;5042314;28;20106;-64
2023/10/16 11:20:27;;;;;;;4.70;2.40;;;;;;;8.67;75.20;97664.16;5043292;28;19936;-63
2023/10/16 11:22:56;;;;;;;7.60;2.05;;;;;;;8.54;71.42;97659.78;5031506;28;20068;-64
2023/10/16 11:25:28;;;;;;;4.03;1.63;;;;;;;8.57;70.32;97650.41;5043997;28;20067;-64
2023/10/16 11:28:07;;;;;;;5.40;1.83;;;;;;;8.63;70.03;97643.28;5039618;28;20045;-63
2023/10/16 11:30:38;;;;;;;3.95;1.90;;;;;;;8.68;69.66;97644.22;5046610;28;20060;-63
2023/10/16 11:33:09;;;;;;;5.43;1.80;;;;;;;8.78;70.57;97645.50;5038331;28;20813;-64
2023/10/16 11:35:35;;;;;;;3.55;1.75;;;;;;;8.77;70.10;97647.38;5040110;28;20048;-63
2023/10/16 11:38:19;;;;;;;4.25;2.05;;;;;;;8.79;70.00;97633.66;5042040;28;20048;-64
2023/10/16 11:40:47;;;;;;;5.47;1.85;;;;;;;8.88;69.56;97629.53;5040783;28;20049;-64
2023/10/16 11:43:19;;;;;;;3.38;2.05;;;;;;;8.85;69.05;97630.84;5039291;28;20045;-64
2023/10/16 11:45:56;;;;;;;7.22;2.42;;;;;;;8.94;69.75;97625.91;5039307;28;20040;-64
2023/10/16 11:51:08;;;;;;;5.05;1.90;;;;;;;9.18;70.32;97620.47;5043579;28;20049;-63
2023/10/16 11:53:38;;;;;;;3.17;1.80;;;;;;;9.21;67.58;97616.50;5036319;28;20466;-63
2023/10/16 11:56:05;;;;;;;3.17;1.65;;;;;;;9.05;67.64;97615.34;5037529;28;20037;-64
2023/10/16 11:58:31;;;;;;;4.40;2.42;;;;;;;9.21;67.68;97619.19;5039333;28;20111;-63
2023/10/16 12:01:11;;;;;;;4.35;2.10;;;;;;;9.29;67.38;97612.63;5039671;28;20063;-63
2023/10/16 12:03:58;;;;;;;3.80;2.03;;;;;;;9.45;66.86;97609.19;5045160;28;20048;-63
2023/10/16 12:06:25;;;;;;;5.30;2.20;;;;;;;9.47;66.95;97603.53;5047247;28;20041;-63
2023/10/16 12:08:51;;;;;;;4.75;2.50;;;;;;;9.50;67.56;97601.16;5042161;28;20152;-63
2023/10/16 12:11:18;;;;;;;5.63;2.20;;;;;;;9.32;67.63;97598.63;5036476;28;20056;-63
2023/10/16 12:13:46;;;;;;;5.38;1.90;;;;;;;9.30;67.35;97593.47;5043986;28;20312;-64
2023/10/16 12:16:13;;;;;;;5.57;1.85;;;;;;;9.43;66.09;97595.06;5034479;28;20439;-63
2023/10/16 12:19:00;;;;;;;4.55;2.10;;;;;;;9.36;65.85;97586.25;5042548;28;20038;-63
2023/10/16 12:21:28;;;;;;;3.40;1.90;;;;;;;9.41;66.96;97578.28;5035470;28;20047;-63
2023/10/16 12:23:57;;;;;;;4.50;2.40;;;;;;;9.53;66.38;97585.53;5034273;28;20045;-64
2023/10/16 12:26:24;;;;;;;4.72;2.30;;;;;;;9.57;68.08;97567.75;5038212;28;20048;-63
2023/10/16 12:28:51;;;;;;;4.88;2.20;;;;;;;9.76;67.88;97569.22;5043217;28;20136;-64
2023/10/16 12:31:18;;;;;;;4.20;2.65;;;;;;;9.87;68.48;97572.94;5042157;28;20136;-63
2023/10/16 12:33:44;;;;;;;5.75;2.85;;;;;;;9.84;67.78;97568.00;5041565;28;20128;-64
2023/10/16 12:36:11;;;;;;;5.18;2.42;;;;;;;9.67;68.50;97564.44;5033526;28;20118;-63
2023/10/16 12:38:37;;;;;;;5.25;2.92;;;;;;;9.83;68.21;97566.38;5046884;28;20044;-63
2023/10/16 12:41:08;;;;;;;4.82;3.05;;;;;;;10.01;68.66;97562.66;5044447;28;20414;-63
2023/10/16 12:43:38;;;;;;;6.25;2.40;;;;;;;9.96;69.11;97569.84;5047683;28;20049;-62
2023/10/16 12:46:07;;;;;;;4.95;2.45;;;;;;;10.11;66.83;97562.00;5044365;28;20499;-63
2023/10/16 12:48:33;;;;;;;3.88;2.05;;;;;;;10.26;66.62;97547.09;5042459;28;20045;-63
2023/10/16 12:51:00;;;;;;;5.80;2.30;;;;;;;10.39;65.47;97551.34;5047373;28;20060;-63
2023/10/16 12:53:38;;;;;;;3.90;2.00;;;;;;;10.47;64.10;97542.03;5046533;28;20073;-63
2023/10/16 12:56:06;;;;;;;5.35;2.90;;;;;;;10.41;62.90;97541.94;5045891;28;20032;-63
2023/10/16 12:58:36;;;;;;;4.28;2.15;;;;;;;10.41;63.15;97541.94;5047259;28;20056;-63
2023/10/16 13:01:05;;;;;;;4.55;1.67;;;;;;;10.46;64.26;97540.41;5044304;28;20052;-63
2023/10/16 13:03:33;;;;;;;4.00;1.97;;;;;;;10.31;62.98;97541.75;5041933;28;20079;-63
2023/10/16 13:06:05;;;;;;;4.35;1.98;;;;;;;10.21;63.72;97534.28;5045886;28;20459;-63
2023/10/16 13:08:33;;;;;;;3.28;1.70;;;;;;;10.27;64.04;97529.78;5045935;28;20049;-63
2023/10/16 13:11:00;;;;;;;4.07;1.90;;;;;;;10.40;62.45;97526.72;5037836;28;20548;-63
2023/10/16 13:13:27;;;;;;;3.85;1.60;;;;;;;10.22;61.39;97524.28;5044743;28;20467;-61
2023/10/16 13:15:54;;;;;;;2.85;1.48;;;;;;;10.31;61.57;97524.72;5053142;28;20055;-61
2023/10/16 13:18:28;;;;;;;4.05;1.45;;;;;;;10.35;61.62;97513.13;5042860;28;20060;-60
2023/10/16 13:21:13;;;;;;;3.55;1.65;;;;;;;10.46;62.20;97519.53;5043981;28;20053;-61
2023/10/16 13:23:39;;;;;;;3.28;1.55;;;;;;;10.58;61.67;97516.72;5035563;28;20124;-61
2023/10/16 13:26:14;;;;;;;3.38;1.60;;;;;;;10.64;59.88;97512.22;5046157;28;20617;-60
2023/10/16 13:28:42;;;;;;;4.47;1.77;;;;;;;10.63;58.34;97513.28;5044677;28;20049;-61
2023/10/16 13:31:09;;;;;;;7.57;1.42;;;;;;;10.68;58.26;97505.22;5046516;28;20583;-61
2023/10/16 13:33:40;;;;;;;2.78;1.40;;;;;;;10.80;57.42;97508.66;5048420;28;20120;-61
2023/10/16 13:36:11;;;;;;;3.85;1.42;;;;;;;11.05;56.90;97512.78;5045397;28;20056;-63
2023/10/16 13:38:39;;;;;;;4.32;1.52;;;;;;;11.39;55.53;97505.59;5045774;28;20029;-64
2023/10/16 13:41:18;;;;;;;2.63;1.30;;;;;;;11.74;54.93;97504.31;5039290;28;20677;-63
2023/10/16 13:43:45;;;;;;;4.07;1.48;;;;;;;12.52;52.52;97499.53;5043020;28;20068;-61
2023/10/16 13:46:13;;;;;;;3.13;1.63;;;;;;;12.84;51.42;97504.09;5045176;28;20121;-61
2023/10/16 13:48:45;;;;;;;3.92;1.20;;;;;;;13.19;49.23;97506.44;5046054;28;20110;-60
2023/10/16 13:51:16;;;;;;;2.90;1.20;;;;;;;13.05;49.09;97496.03;5045331;28;20674;-60
2023/10/16 13:53:48;;;;;;;2.88;1.80;;;;;;;13.68;47.78;97493.53;5044501;28;20049;-60
2023/10/16 13:56:16;;;;;;;3.08;1.30;;;;;;;13.93;46.53;97498.19;5040126;28;20045;-60
2023/10/16 13:58:49;;;;;;;3.42;1.27;;;;;;;14.32;45.42;97488.69;5047180;28;20037;-61
2023/10/16 14:01:15;;;;;;;2.10;1.20;;;;;;;14.33;45.41;97492.22;5042200;28;20473;-61
2023/10/16 14:03:42;;;;;;;2.40;1.30;;;;;;;13.65;46.42;97484.81;5046027;28;20396;-60
2023/10/16 14:06:12;;;;;;;4.63;1.60;;;;;;;13.35;47.30;97490.97;5043062;28;20064;-61